Time;durP1;ratioP1;P1;durP2;ratioP2;P2;SDS_P1;SDS_P2;PMS_P1;PMS_P2;Temp;Humidity;BMP_temperature;BMP_pressure;BME280_temperature;BME280_humidity;BME280_pressure;Samples;Min_cycle;Max_cycle;Signal;HPM_P1;HPM_P2
2022/09/27 00:01:32;;;;;;;28.35;14.90;;;19.20;99.90;;;19.08;67.58;97494.69;5093061;27;20054;-76
2022/09/27 00:03:59;;;;;;;33.90;16.20;;;19.20;99.90;;;19.06;67.33;97490.69;5102429;27;20046;-76
2022/09/27 00:06:30;;;;;;;36.00;16.88;;;19.20;99.90;;;19.10;67.85;97499.78;5096505;27;20054;-76
2022/09/27 00:08:56;;;;;;;29.17;17.15;;;19.20;99.90;;;19.09;68.15;97487.22;5093331;27;20046;-76
2022/09/27 00:11:34;;;;;;;34.30;16.38;;;19.20;99.90;;;19.05;67.76;97486.34;5091822;27;20043;-75
2022/09/27 00:14:01;;;;;;;26.02;14.75;;;19.20;99.90;;;19.07;67.65;97489.53;5091572;28;20036;-75
2022/09/27 00:16:33;;;;;;;31.80;14.35;;;19.10;99.90;;;19.07;67.44;97486.78;5072562;28;20043;-76
2022/09/27 00:19:09;;;;;;;28.13;13.75;;;19.20;99.90;;;19.04;67.50;97493.00;5111210;27;20063;-75
2022/09/27 00:21:35;;;;;;;33.85;16.73;;;19.10;99.90;;;19.02;68.13;97492.56;5061013;28;20146;-75
2022/09/27 00:24:02;;;;;;;31.30;16.77;;;19.10;99.90;;;19.07;68.37;97481.28;5070569;28;20499;-75
2022/09/27 00:26:29;;;;;;;34.67;16.20;;;19.20;99.90;;;19.06;68.14;97479.69;5089877;28;20070;-76
2022/09/27 00:28:55;;;;;;;30.55;14.80;;;19.20;99.90;;;19.03;67.63;97477.66;5092080;28;20126;-76
2022/09/27 00:31:28;;;;;;;29.88;14.95;;;19.20;99.90;;;19.00;67.68;97484.66;5073063;28;20180;-76
2022/09/27 00:33:55;;;;;;;27.00;14.88;;;19.10;99.90;;;19.02;67.51;97476.06;5089630;28;20040;-76
2022/09/27 00:36:22;;;;;;;27.85;14.15;;;19.10;99.90;;;19.01;67.42;97469.00;5104758;27;20062;-76
2022/09/27 00:38:48;;;;;;;28.15;15.82;;;19.10;99.90;;;19.04;68.29;97466.31;5074365;28;20043;-76
2022/09/27 00:41:17;;;;;;;34.20;15.60;;;19.10;99.90;;;19.06;68.14;97465.97;5074396;28;20059;-76
2022/09/27 00:44:27;;;;;;;31.65;15.68;;;19.10;99.90;;;19.03;67.77;97463.91;5102545;27;20044;-76
2022/09/27 00:47:18;;;;;;;24.77;14.20;;;19.10;99.90;;;19.00;67.65;97462.69;5070997;27;20052;-77
2022/09/27 00:50:08;;;;;;;30.42;15.63;;;19.10;99.90;;;19.02;67.10;97459.59;5110408;27;20118;-76
2022/09/27 00:53:21;;;;;;;24.58;12.65;;;19.10;99.90;;;18.97;68.19;97449.66;5061665;28;20043;-76
2022/09/27 00:55:59;;;;;;;31.90;16.55;;;19.10;99.90;;;19.00;68.37;97445.41;5109735;27;20074;-76
2022/09/27 00:58:49;;;;;;;24.70;13.02;;;19.10;99.90;;;18.98;68.63;97440.28;5077447;28;20044;-76
2022/09/27 01:01:15;;;;;;;25.45;14.82;;;19.10;99.90;;;18.96;67.97;97439.84;5089736;27;20047;-76
2022/09/27 01:04:06;;;;;;;31.42;14.50;;;19.10;99.90;;;18.94;67.74;97447.66;5091452;27;20043;-76
2022/09/27 01:06:32;;;;;;;30.25;14.68;;;19.10;99.90;;;18.94;67.56;97444.91;5123229;27;20036;-76
2022/09/27 01:08:58;;;;;;;24.73;14.10;;;19.00;99.90;;;18.94;68.00;97441.38;5078039;28;20042;-76
2022/09/27 01:11:40;;;;;;;30.05;15.38;;;19.00;99.90;;;18.95;68.41;97438.25;5077368;28;20040;-76
2022/09/27 01:14:44;;;;;;;25.02;14.70;;;19.10;99.90;;;18.94;68.79;97435.88;5094705;28;20146;-76
2022/09/27 01:17:40;;;;;;;28.80;15.13;;;19.00;99.90;;;18.99;67.45;97430.88;5105846;27;20044;-76
2022/09/27 01:20:30;;;;;;;25.70;14.32;;;19.10;99.90;;;18.97;67.54;97419.44;5106484;27;20050;-75
2022/09/27 01:23:22;;;;;;;21.88;14.38;;;19.00;99.90;;;18.95;67.28;97413.50;5106255;27;20071;-75
2022/09/27 01:26:33;;;;;;;27.15;14.82;;;19.00;99.90;;;18.98;68.18;97406.50;5109152;27;20043;-75
2022/09/27 01:29:08;;;;;;;24.33;13.93;;;19.10;99.90;;;19.00;68.16;97406.94;5108767;27;20051;-75
2022/09/27 01:31:49;;;;;;;24.35;13.48;;;19.10;99.90;;;18.93;68.09;97409.53;5088501;28;20174;-75
2022/09/27 01:34:44;;;;;;;26.30;14.25;;;19.00;99.90;;;18.94;67.78;97400.16;5091169;28;20048;-75
2022/09/27 01:37:35;;;;;;;25.50;13.18;;;19.00;99.90;;;18.94;67.70;97391.91;5093574;28;20048;-75
2022/09/27 01:40:23;;;;;;;29.45;14.20;;;19.00;99.90;;;18.93;67.44;97393.88;5103223;28;20044;-75
2022/09/27 01:43:17;;;;;;;26.17;13.65;;;19.00;99.90;;;18.96;68.01;97390.41;5105209;28;20043;-75
2022/09/27 01:46:09;;;;;;;25.58;13.65;;;19.00;99.90;;;18.98;68.16;97387.25;5097176;28;20122;-75
2022/09/27 01:48:41;;;;;;;22.23;12.30;;;19.00;99.90;;;18.94;67.77;97367.19;5105710;28;20058;-75
2022/09/27 01:51:12;;;;;;;24.80;13.73;;;19.00;99.90;;;18.94;67.58;97378.19;5070250;28;20116;-75
2022/09/27 01:53:51;;;;;;;22.30;12.85;;;19.00;99.90;;;18.94;67.26;97372.69;5072705;28;20035;-75
2022/09/27 01:56:23;;;;;;;21.48;13.20;;;19.00;99.90;;;18.95;67.33;97374.25;5091790;28;20699;-75
2022/09/27 01:59:05;;;;;;;21.50;12.25;;;19.00;99.90;;;18.94;67.64;97362.47;5092926;28;20058;-75
2022/09/27 02:01:31;;;;;;;;;;;19.00;99.90;;;18.94;68.12;97362.47;5063062;28;20051;-75
2022/09/27 02:03:59;;;;;;;20.05;12.48;;;19.00;99.90;;;18.95;67.79;97366.81;5091813;28;20659;-75
2022/09/27 02:06:38;;;;;;;18.58;11.40;;;19.00;99.90;;;18.93;67.49;97363.66;5078763;28;20036;-75
2022/09/27 02:09:21;;;;;;;23.40;13.07;;;19.00;99.90;;;18.93;67.44;97358.16;5092019;28;20149;-75
2022/09/27 02:11:51;;;;;;;27.40;13.40;;;19.00;99.90;;;18.91;67.09;97357.72;5072897;28;20125;-75
2022/09/27 02:14:18;;;;;;;23.33;13.05;;;19.00;99.90;;;18.92;68.15;97347.50;5092632;28;20040;-75
2022/09/27 02:17:16;;;;;;;17.20;11.60;;;19.00;99.90;;;18.94;68.15;97348.75;5110939;28;20054;-75
2022/09/27 02:20:29;;;;;;;22.00;12.38;;;19.00;99.90;;;18.91;68.02;97349.47;5092072;28;20641;-75
2022/09/27 02:23:14;;;;;;;18.80;11.20;;;19.00;99.90;;;18.90;67.66;97347.88;5066746;28;20108;-75
2022/09/27 02:26:02;;;;;;;19.30;11.98;;;19.00;99.90;;;18.91;67.24;97343.97;5105380;28;20043;-75
2022/09/27 02:28:39;;;;;;;20.75;10.75;;;19.00;99.90;;;18.89;67.57;97340.00;5075768;28;20137;-75
2022/09/27 02:31:07;;;;;;;16.77;10.45;;;19.00;99.90;;;18.92;68.07;97339.28;5084664;28;20395;-76
2022/09/27 02:34:03;;;;;;;17.55;11.55;;;19.00;99.90;;;18.88;68.24;97341.97;5056976;28;20044;-75
2022/09/27 02:36:30;;;;;;;18.95;11.90;;;19.00;99.90;;;18.86;68.17;97339.56;5077425;28;20118;-76
2022/09/27 02:38:56;;;;;;;23.55;11.93;;;19.00;99.90;;;18.90;67.70;97347.09;5102778;27;20107;-76
2022/09/27 02:41:22;;;;;;;24.65;11.93;;;19.00;99.90;;;18.90;67.41;97336.09;5083164;27;20042;-75
2022/09/27 02:43:54;;;;;;;22.00;10.68;;;19.00;99.90;;;18.90;67.28;97344.34;5074666;27;20114;-75
2022/09/27 02:46:54;;;;;;;18.60;10.88;;;19.00;99.90;;;18.91;67.93;97340.44;5093277;28;20663;-75
2022/09/27 02:50:17;;;;;;;20.60;11.85;;;19.00;99.90;;;18.93;68.01;97340.84;5100257;27;20467;-75
2022/09/27 02:53:20;;;;;;;19.13;10.77;;;19.00;99.90;;;18.86;67.83;97338.78;5108833;27;20046;-75
2022/09/27 02:56:09;;;;;;;19.17;11.30;;;19.00;99.90;;;18.85;67.62;97346.22;5083577;27;20079;-76
2022/09/27 02:58:57;;;;;;;22.45;12.32;;;19.00;99.90;;;18.85;67.44;97348.97;5079464;27;20741;-75
2022/09/27 03:02:01;;;;;;;18.38;10.90;;;18.90;99.90;;;18.87;67.55;97354.88;5103046;27;20066;-75
2022/09/27 03:05:09;;;;;;;17.17;10.15;;;18.90;99.90;;;18.87;68.04;97338.41;5106092;27;20043;-76
2022/09/27 03:07:37;;;;;;;19.52;11.18;;;18.90;99.90;;;18.90;67.84;97330.59;5046799;28;20525;-75
2022/09/27 03:10:03;;;;;;;22.60;11.35;;;19.00;99.90;;;18.86;67.57;97331.31;5084737;28;20056;-75
2022/09/27 03:12:29;;;;;;;17.35;10.90;;;18.90;99.90;;;18.84;67.60;97341.88;5112983;27;20075;-75
2022/09/27 03:14:57;;;;;;;14.15;9.43;;;18.90;99.90;;;18.85;67.10;97335.25;5081880;28;20036;-75
2022/09/27 03:17:23;;;;;;;21.08;10.20;;;19.00;99.90;;;18.85;67.18;97334.44;5068815;27;20039;-75
2022/09/27 03:19:49;;;;;;;16.17;9.43;;;18.90;99.90;;;18.86;67.80;97328.59;5111146;27;20039;-75
2022/09/27 03:22:15;;;;;;;20.75;10.45;;;19.00;99.90;;;18.84;68.45;97332.84;5112285;27;20071;-75
2022/09/27 03:24:42;;;;;;;15.65;10.52;;;18.90;99.90;;;18.85;67.86;97318.75;5078101;27;20043;-75
2022/09/27 03:27:08;;;;;;;15.55;10.10;;;19.00;99.90;;;18.85;67.56;97323.44;5086345;27;20039;-75
2022/09/27 03:29:35;;;;;;;14.10;8.60;;;18.90;99.90;;;18.82;67.16;97319.47;5096894;27;20478;-75
2022/09/27 03:32:02;;;;;;;21.77;10.90;;;18.90;99.90;;;18.83;67.26;97317.53;5079643;27;21222;-75
2022/09/27 03:34:28;;;;;;;19.17;10.80;;;18.90;99.90;;;18.82;67.86;97316.72;5088813;27;20069;-75
2022/09/27 03:36:55;;;;;;;16.98;10.00;;;18.90;99.90;;;18.83;68.00;97309.28;5110636;27;20066;-75
2022/09/27 03:39:21;;;;;;;17.10;9.45;;;18.90;99.90;;;18.81;68.44;97309.66;5095413;27;20043;-76
2022/09/27 03:41:47;;;;;;;14.15;9.82;;;19.00;99.90;;;18.81;67.50;97304.16;5093699;27;20122;-76
2022/09/27 03:44:19;;;;;;;17.38;9.35;;;18.90;99.90;;;18.82;67.58;97296.69;5105254;27;20440;-75
2022/09/27 03:46:48;;;;;;;12.85;10.02;;;18.90;99.90;;;18.80;67.33;97296.25;5061110;27;20577;-75
2022/09/27 03:49:14;;;;;;;13.00;9.55;;;18.90;99.90;;;18.82;67.09;97294.75;5103329;27;20043;-75
2022/09/27 03:51:43;;;;;;;15.30;9.63;;;18.90;99.90;;;18.84;67.81;97303.41;5076087;27;20057;-75
2022/09/27 03:54:09;;;;;;;15.55;10.10;;;18.90;99.90;;;18.84;66.60;97311.66;5091803;28;20797;-76
2022/09/27 03:56:36;;;;;;;16.13;9.30;;;18.90;99.70;;;18.76;66.19;97304.44;5112869;27;20047;-76
2022/09/27 03:59:02;;;;;;;12.63;8.40;;;18.90;99.50;;;18.79;66.01;97308.44;5076070;27;20536;-76
2022/09/27 04:01:28;;;;;;;12.68;8.55;;;18.90;99.90;;;18.82;65.87;97299.44;5093750;27;20048;-75
2022/09/27 04:03:54;;;;;;;14.90;8.77;;;18.90;99.50;;;18.81;67.07;97300.63;5108689;27;20062;-76
2022/09/27 04:06:21;;;;;;;15.25;8.63;;;18.90;99.70;;;18.82;66.99;97296.69;5088795;27;20036;-75
2022/09/27 04:08:47;;;;;;;17.75;8.90;;;18.90;99.90;;;18.83;66.84;97287.31;5087163;27;20086;-76
2022/09/27 04:11:14;;;;;;;16.58;8.27;;;18.90;99.90;;;18.79;65.64;97284.50;5104760;27;20046;-76
2022/09/27 04:13:40;;;;;;;12.45;8.20;;;18.90;99.50;;;18.76;65.41;97271.50;5111932;27;20082;-75
2022/09/27 04:16:06;;;;;;;12.65;8.50;;;18.90;99.40;;;18.75;65.20;97277.31;5091463;27;20136;-75
2022/09/27 04:18:33;;;;;;;12.93;8.35;;;18.90;99.20;;;18.77;65.30;97272.28;5102889;27;20056;-75
2022/09/27 04:20:58;;;;;;;12.23;8.90;;;18.90;99.30;;;18.80;66.59;97277.03;5107793;27;20040;-76
2022/09/27 04:23:24;;;;;;;12.60;8.73;;;18.90;99.60;;;18.80;66.73;97269.63;5109251;27;20032;-76
2022/09/27 04:25:51;;;;;;;12.38;8.70;;;18.90;99.70;;;18.79;66.07;97270.75;5107518;27;20505;-75
2022/09/27 04:28:17;;;;;;;13.52;8.18;;;18.90;99.50;;;18.79;65.18;97272.72;5107600;27;20034;-76
2022/09/27 04:30:44;;;;;;;10.93;8.85;;;18.90;99.30;;;18.77;64.49;97284.06;5104505;27;20051;-75
2022/09/27 04:33:11;;;;;;;7.90;7.10;;;18.90;99.10;;;18.74;64.80;97284.75;5062499;28;20074;-79
2022/09/27 04:38:22;;;;;;;11.07;8.45;;;18.90;99.40;;;18.81;66.16;97292.38;5110171;27;20036;-76
2022/09/27 04:40:49;;;;;;;13.55;7.72;;;18.90;99.50;;;18.78;66.32;97299.41;5108848;27;20606;-76
2022/09/27 04:43:16;;;;;;;10.45;7.05;;;18.90;99.60;;;18.77;65.10;97295.03;5103358;27;20040;-75
2022/09/27 04:45:43;;;;;;;9.95;7.50;;;18.90;99.30;;;18.77;64.53;97294.25;5084634;27;20391;-75
2022/09/27 04:48:09;;;;;;;8.68;7.15;;;18.90;99.10;;;18.78;64.48;97299.41;5089263;27;20128;-76
2022/09/27 04:50:35;;;;;;;8.10;6.50;;;18.90;99.00;;;18.74;64.20;97284.75;5059241;27;20032;-75
2022/09/27 04:53:01;;;;;;;10.52;6.85;;;18.90;99.00;;;18.81;65.34;97284.94;5093013;28;20050;-75
2022/09/27 04:55:27;;;;;;;12.02;7.18;;;18.90;99.50;;;18.79;65.69;97283.69;5093598;28;20415;-75
2022/09/27 04:57:53;;;;;;;9.05;6.75;;;18.90;99.50;;;18.79;65.33;97289.19;5110883;27;20036;-75
2022/09/27 05:00:19;;;;;;;9.70;6.85;;;18.90;99.40;;;18.76;64.42;97279.72;5108171;27;20043;-77
2022/09/27 05:02:47;;;;;;;9.82;6.88;;;18.80;99.00;;;18.77;64.26;97284.06;5087319;27;20142;-78
2022/09/27 05:05:14;;;;;;;7.43;6.40;;;18.90;99.00;;;18.77;63.64;97292.28;5090418;28;20427;-78
2022/09/27 05:07:40;;;;;;;11.77;7.30;;;18.80;98.90;;;18.78;64.21;97291.16;5088468;27;20500;-78
2022/09/27 05:10:07;;;;;;;8.23;6.40;;;18.80;99.00;;;18.81;65.24;97278.66;5078259;28;20047;-78
2022/09/27 05:12:33;;;;;;;11.43;7.18;;;18.90;99.50;;;18.83;65.36;97271.63;5091536;27;20118;-78
2022/09/27 05:15:01;;;;;;;9.93;6.82;;;18.90;99.50;;;18.82;63.97;97264.53;5078906;28;20067;-77
2022/09/27 05:17:27;;;;;;;9.13;6.45;;;18.80;99.00;;;18.83;63.52;97260.63;5103082;28;20486;-75
2022/09/27 05:19:53;;;;;;;8.75;6.57;;;18.90;98.90;;;18.80;63.41;97260.56;5086041;28;20043;-75
2022/09/27 05:22:19;;;;;;;11.13;6.95;;;18.80;98.80;;;18.84;63.04;97261.44;5105747;27;20043;-75
2022/09/27 05:24:46;;;;;;;8.93;6.55;;;18.80;98.70;;;18.84;64.35;97256.72;5088396;28;20050;-76
2022/09/27 05:27:19;;;;;;;10.82;6.85;;;18.90;99.10;;;18.87;64.35;97255.19;5084975;28;20036;-79
2022/09/27 05:29:46;;;;;;;9.18;6.57;;;18.90;99.20;;;18.85;64.72;97252.00;5064599;28;20501;-78
2022/09/27 05:32:12;;;;;;;7.25;5.18;;;18.90;99.30;;;18.82;63.20;97250.00;5088499;27;20380;-78
2022/09/27 05:34:38;;;;;;;9.00;6.53;;;18.90;98.80;;;18.87;62.98;97249.69;5082093;28;20050;-78
2022/09/27 05:37:05;;;;;;;11.60;6.65;;;18.90;98.80;;;18.85;62.64;97232.78;5069711;28;20440;-78
2022/09/27 05:39:31;;;;;;;7.43;5.90;;;18.90;98.70;;;18.89;62.52;97238.34;5103903;28;20039;-78
2022/09/27 05:41:57;;;;;;;7.47;5.85;;;18.90;98.70;;;18.91;63.67;97244.28;5085910;28;20036;-78
2022/09/27 05:44:24;;;;;;;8.43;5.53;;;18.90;99.20;;;18.94;63.69;97233.34;5072197;28;20049;-79
2022/09/27 05:46:51;;;;;;;8.57;6.35;;;18.90;99.20;;;18.92;63.58;97241.16;5066176;28;20052;-78
2022/09/27 05:49:17;;;;;;;7.45;5.43;;;18.90;99.00;;;18.96;62.90;97235.72;5065146;28;20525;-75
2022/09/27 05:51:43;;;;;;;6.65;5.72;;;18.90;98.90;;;18.97;62.35;97240.06;5085949;28;20039;-75
2022/09/27 05:54:09;;;;;;;12.15;6.75;;;18.90;98.70;;;19.02;62.33;97226.00;5084224;28;20035;-75
2022/09/27 05:56:35;;;;;;;8.45;6.00;;;18.90;98.80;;;19.05;62.05;97222.53;5090139;28;20383;-75
2022/09/27 05:59:01;;;;;;;9.00;6.55;;;19.00;98.70;;;19.04;62.17;97227.22;5080511;28;20470;-75
2022/09/27 06:01:27;;;;;;;8.73;6.10;;;19.00;98.70;;;19.09;61.92;97234.38;5077190;28;20162;-75
2022/09/27 06:03:54;;;;;;;8.35;6.18;;;19.00;98.80;;;19.15;62.35;97238.38;5098889;28;20039;-75
2022/09/27 06:06:22;;;;;;;8.68;5.85;;;19.00;98.80;;;19.16;62.31;97230.94;5067890;28;20050;-75
2022/09/27 06:08:48;;;;;;;6.72;6.03;;;19.00;98.80;;;19.20;62.12;97237.28;5085676;28;20385;-75
2022/09/27 06:11:14;;;;;;;7.28;5.53;;;19.10;98.90;;;19.24;61.87;97236.19;5098852;28;20122;-75
2022/09/27 06:13:40;;;;;;;9.88;5.93;;;19.10;98.80;;;19.26;61.64;97233.09;5100615;27;20046;-75
2022/09/27 06:16:09;;;;;;;9.30;6.38;;;19.10;98.80;;;19.30;61.25;97229.22;5105839;27;20039;-75
2022/09/27 06:18:35;;;;;;;9.00;5.55;;;19.10;98.70;;;19.34;61.34;97236.75;5090151;28;20039;-75
2022/09/27 06:21:02;;;;;;;8.07;5.70;;;19.20;98.80;;;19.36;61.25;97237.97;5087783;28;20044;-75
2022/09/27 06:23:31;;;;;;;8.50;5.85;;;19.20;98.80;;;19.36;61.55;97228.88;5090840;28;20047;-75
2022/09/27 06:26:05;;;;;;;8.00;5.50;;;19.20;98.90;;;19.42;61.37;97230.19;5103375;27;20043;-75
2022/09/27 06:28:31;;;;;;;6.95;4.97;;;19.20;98.80;;;19.41;61.22;97228.56;5073756;28;20040;-75
2022/09/27 06:31:00;;;;;;;7.40;5.05;;;19.20;98.80;;;19.47;60.98;97232.59;5086539;28;20491;-75
2022/09/27 06:33:27;;;;;;;4.65;4.18;;;19.20;98.70;;;19.49;60.75;97233.81;5086757;28;20068;-75
2022/09/27 06:35:53;;;;;;;6.80;5.97;;;19.30;98.80;;;19.56;60.53;97232.34;5100059;27;20067;-75
2022/09/27 06:38:22;;;;;;;5.80;4.45;;;19.30;98.80;;;19.58;60.65;97241.78;5106773;27;20063;-75
2022/09/27 06:40:48;;;;;;;7.43;5.35;;;19.30;98.80;;;19.61;60.73;97243.78;5086765;28;20165;-75
2022/09/27 06:43:19;;;;;;;8.43;5.38;;;19.40;98.80;;;19.65;60.13;97250.16;5105091;27;20042;-75
2022/09/27 06:45:45;;;;;;;7.25;4.95;;;19.40;98.80;;;19.65;60.44;97250.16;5070781;28;20050;-76
2022/09/27 06:48:12;;;;;;;5.45;4.72;;;19.40;98.70;;;19.68;60.24;97246.69;5088894;28;20048;-76
2022/09/27 06:50:40;;;;;;;7.65;5.72;;;19.40;98.70;;;19.71;60.62;97243.19;5085889;28;20044;-76
2022/09/27 06:53:08;;;;;;;6.97;5.20;;;19.50;98.90;;;19.73;60.88;97240.06;5104128;27;20091;-76
2022/09/27 06:55:34;;;;;;;6.95;5.15;;;19.50;98.90;;;19.71;60.62;97232.19;5089332;28;20052;-76
2022/09/27 07:00:48;;;;;;;10.43;5.78;;;19.60;98.80;;;19.80;60.33;97231.13;5086753;27;20047;-76
2022/09/27 07:03:14;;;;;;;7.00;4.80;;;19.60;98.70;;;19.83;60.24;97238.63;5101060;27;20061;-76
2022/09/27 07:05:42;;;;;;;8.23;5.78;;;19.60;98.60;;;19.84;60.14;97245.72;5098552;27;20040;-76
2022/09/27 07:08:11;;;;;;;6.68;5.22;;;19.60;98.80;;;19.89;60.01;97237.13;5104881;27;20047;-76
2022/09/27 07:10:38;;;;;;;9.23;5.80;;;19.70;98.70;;;19.93;59.97;97238.00;5090605;27;20044;-76
2022/09/27 07:13:06;;;;;;;13.88;7.82;;;19.70;98.70;;;19.93;59.86;97233.28;5072452;27;20040;-76
2022/09/27 07:15:36;;;;;;;14.70;7.15;;;19.70;98.70;;;19.94;60.10;97223.06;5085195;27;20039;-76
2022/09/27 07:18:04;;;;;;;13.10;7.00;;;19.70;98.70;;;19.97;59.80;97224.25;5079263;27;20032;-76
2022/09/27 07:20:30;;;;;;;10.27;6.57;;;19.80;98.70;;;19.99;59.65;97222.72;5085806;27;20173;-76
2022/09/27 07:22:56;;;;;;;10.68;6.10;;;19.80;98.60;;;20.01;59.72;97223.16;5087609;27;20043;-76
2022/09/27 07:25:23;;;;;;;14.25;6.75;;;19.80;98.50;;;20.04;59.78;97221.59;5066677;28;20043;-76
2022/09/27 07:27:51;;;;;;;14.60;7.68;;;19.80;98.60;;;20.06;59.66;97213.78;5071028;28;20372;-76
2022/09/27 07:30:18;;;;;;;13.20;7.28;;;19.80;98.60;;;20.08;59.64;97211.44;5069205;27;20483;-76
2022/09/27 07:32:44;;;;;;;15.30;8.27;;;19.90;98.60;;;20.07;59.73;97205.13;5071307;27;20096;-76
2022/09/27 07:35:12;;;;;;;16.80;7.30;;;19.90;98.50;;;20.09;59.50;97208.31;5067995;28;20051;-76
2022/09/27 07:37:38;;;;;;;16.20;7.93;;;19.90;98.50;;;20.11;59.44;97216.19;5070432;28;20036;-76
2022/09/27 07:40:08;;;;;;;22.63;9.00;;;19.90;98.50;;;20.15;59.37;97222.53;5103371;27;20044;-76
2022/09/27 07:42:37;;;;;;;15.60;8.75;;;20.00;98.50;;;20.16;59.25;97211.13;5085606;28;20400;-76
2022/09/27 07:45:05;;;;;;;17.92;9.48;;;20.00;98.50;;;20.16;59.52;97216.66;5072066;27;20047;-76
2022/09/27 07:47:31;;;;;;;19.00;9.75;;;20.00;98.50;;;20.19;59.12;97214.31;5070766;27;20131;-76
2022/09/27 07:49:57;;;;;;;15.10;8.55;;;20.00;98.40;;;20.22;59.14;97210.81;5073397;27;20448;-76
2022/09/27 07:52:23;;;;;;;17.17;9.25;;;20.00;98.40;;;20.22;59.05;97210.81;5103770;27;20047;-76
2022/09/27 07:54:50;;;;;;;15.90;7.93;;;20.00;98.40;;;20.25;58.93;97204.53;5085457;28;20050;-76
2022/09/27 07:57:16;;;;;;;17.70;8.95;;;20.10;98.40;;;20.27;58.98;97208.50;5100224;27;20039;-76
2022/09/27 07:59:42;;;;;;;15.20;9.20;;;20.10;98.40;;;20.29;59.00;97210.88;5078011;28;20054;-76
2022/09/27 08:02:14;;;;;;;17.77;9.23;;;20.10;98.40;;;20.30;59.06;97209.72;5086025;28;20131;-77
2022/09/27 08:04:42;;;;;;;28.55;11.15;;;20.10;98.40;;;20.29;59.08;97205.38;5074644;28;20054;-76
2022/09/27 08:07:09;;;;;;;24.50;9.77;;;20.10;98.30;;;20.30;58.92;97202.28;5062789;28;20044;-76
2022/09/27 08:09:36;;;;;;;18.95;9.10;;;20.10;98.30;;;20.31;59.04;97197.53;5100078;27;20130;-76
2022/09/27 08:12:03;;;;;;;14.90;8.10;;;20.20;98.30;;;20.31;59.11;97203.06;5072493;28;20047;-76
2022/09/27 08:14:30;;;;;;;16.73;9.88;;;20.20;98.30;;;20.35;58.98;97203.88;5106021;27;20582;-76
2022/09/27 08:16:56;;;;;;;24.83;10.57;;;20.20;98.30;;;20.36;59.06;97202.72;5099234;27;20043;-76
2022/09/27 08:19:22;;;;;;;19.35;10.32;;;20.20;98.30;;;20.38;58.63;97203.94;5103537;27;20078;-76
2022/09/27 08:21:50;;;;;;;16.67;9.50;;;20.20;98.20;;;20.40;58.68;97192.50;5088326;28;20044;-76
2022/09/27 08:24:16;;;;;;;21.52;10.15;;;20.30;98.30;;;20.41;58.63;97196.09;5070492;28;20035;-76
2022/09/27 08:26:42;;;;;;;18.90;10.35;;;20.30;98.20;;;20.40;58.25;97195.25;5070200;28;20046;-76
2022/09/27 08:29:08;;;;;;;20.73;9.35;;;20.30;98.20;;;20.43;58.66;97197.28;5107440;27;20049;-76
2022/09/27 08:31:34;;;;;;;25.40;10.02;;;20.30;98.20;;;20.46;58.70;97193.00;5085590;28;20119;-76
2022/09/27 08:34:03;;;;;;;18.27;10.02;;;20.30;98.20;;;20.45;58.63;97196.91;5070927;28;20482;-76
2022/09/27 08:36:31;;;;;;;20.48;9.45;;;20.40;98.20;;;20.42;58.71;97186.63;5086497;28;20502;-76
2022/09/27 08:38:59;;;;;;;19.33;8.82;;;20.30;98.10;;;20.47;58.46;97180.78;5089443;28;20051;-76
2022/09/27 08:41:48;;;;;;;19.48;10.10;;;20.40;98.20;;;20.48;58.45;97187.88;5085726;28;20043;-76
2022/09/27 08:44:45;;;;;;;18.80;9.27;;;20.40;98.10;;;20.49;58.31;97181.22;5102029;27;20114;-76
2022/09/27 08:47:14;;;;;;;26.77;10.95;;;20.40;98.10;;;20.47;58.61;97184.31;5102244;27;20043;-76
2022/09/27 08:49:52;;;;;;;26.90;10.25;;;20.40;98.20;;;20.49;58.51;97181.22;5082194;28;20620;-76
2022/09/27 08:52:42;;;;;;;14.55;9.00;;;20.40;98.20;;;20.48;58.60;97174.09;5087810;28;20048;-76
2022/09/27 08:55:38;;;;;;;24.08;9.93;;;20.40;98.10;;;20.51;58.45;97168.66;5069378;27;20039;-76
2022/09/27 08:58:20;;;;;;;21.55;10.50;;;20.40;98.00;;;20.49;58.53;97170.97;5103851;27;20549;-76
2022/09/27 09:00:50;;;;;;;18.02;9.40;;;20.40;98.00;;;20.51;58.41;97170.63;5083719;28;20668;-76
2022/09/27 09:03:21;;;;;;;17.05;8.95;;;20.40;97.90;;;20.53;58.29;97169.06;5071400;27;20131;-76
2022/09/27 09:06:06;;;;;;;20.52;9.55;;;20.50;98.00;;;20.53;58.47;97173.75;5080737;28;20535;-76
2022/09/27 09:09:00;;;;;;;19.42;9.38;;;20.50;98.00;;;20.51;58.62;97170.63;5084774;28;20032;-76
2022/09/27 09:15:05;;;;;;;21.67;8.98;;;20.50;97.90;;;20.55;58.18;97158.47;5091946;27;20065;-76
2022/09/27 09:18:21;;;;;;;21.23;9.15;;;20.50;97.90;;;20.52;58.49;97153.69;5086316;28;20059;-76
2022/09/27 09:21:40;;;;;;;18.45;9.18;;;20.50;97.90;;;20.54;58.71;97145.88;5057985;27;20056;-76
2022/09/27 09:24:45;;;;;;;18.83;9.38;;;20.50;98.00;;;20.54;58.40;97145.88;5101079;27;20088;-76
2022/09/27 09:27:32;;;;;;;18.35;8.57;;;20.50;98.00;;;20.56;58.38;97146.28;5022583;28;20037;-76
2022/09/27 09:30:23;;;;;;;15.05;8.13;;;20.50;97.90;;;20.59;58.33;97140.00;5085323;28;20108;-76
2022/09/27 09:33:15;;;;;;;17.73;8.90;;;20.50;97.90;;;20.56;58.26;97132.53;5070871;27;20380;-76
2022/09/27 09:36:07;;;;;;;17.30;9.40;;;20.60;97.90;;;20.63;58.28;97125.47;5084462;28;20052;-76
2022/09/27 09:38:44;;;;;;;16.60;9.32;;;20.60;97.90;;;20.64;58.19;97125.09;5085456;27;20454;-75
2022/09/27 09:41:14;;;;;;;22.08;9.73;;;20.60;97.90;;;20.64;58.07;97110.53;5057127;28;20068;-76
2022/09/27 09:43:48;;;;;;;18.95;9.93;;;20.60;97.90;;;20.65;58.04;97112.91;5102194;28;20043;-76
2022/09/27 09:46:33;;;;;;;17.08;8.23;;;20.60;97.90;;;20.66;57.96;97105.44;5069632;28;20401;-76
2022/09/27 09:49:06;;;;;;;19.63;8.95;;;20.60;98.20;;;20.68;58.00;97108.59;5086570;27;20475;-76
2022/09/27 09:51:41;;;;;;;18.48;9.48;;;20.60;97.80;;;20.69;58.11;97099.97;5089971;27;20044;-76
2022/09/27 09:54:15;;;;;;;16.45;8.73;;;20.70;97.90;;;20.67;58.21;97098.75;5086685;28;20050;-76
2022/09/27 09:56:48;;;;;;;15.85;8.15;;;20.70;97.90;;;20.67;58.38;97088.53;5107874;27;20122;-76
2022/09/27 09:59:29;;;;;;;19.92;10.00;;;20.70;97.80;;;20.69;58.05;97082.66;5088142;28;20040;-76
2022/09/27 10:01:59;;;;;;;22.13;9.95;;;20.70;97.80;;;20.74;57.52;97076.78;5073554;27;20251;-76
2022/09/27 10:04:31;;;;;;;18.90;9.63;;;20.70;97.70;;;20.73;57.70;97077.94;5089078;27;20438;-76
2022/09/27 10:06:57;;;;;;;22.13;10.65;;;20.70;97.70;;;20.72;57.83;97073.59;5086154;28;20043;-76
2022/09/27 10:09:25;;;;;;;19.40;10.40;;;20.70;97.70;;;20.79;57.66;97065.41;5093512;28;20531;-76
2022/09/27 10:11:51;;;;;;;23.48;10.30;;;20.80;97.70;;;20.87;57.64;97066.25;5090399;28;20051;-76
2022/09/27 10:14:19;;;;;;;21.65;9.60;;;20.80;97.70;;;20.87;57.29;97060.72;5087083;27;20042;-76
2022/09/27 10:16:54;;;;;;;16.73;7.75;;;20.80;97.70;;;20.90;57.09;97057.97;5104724;27;20048;-76
2022/09/27 10:19:32;;;;;;;15.00;8.10;;;20.90;97.60;;;20.93;57.25;97061.94;5088688;27;20134;-76
2022/09/27 10:22:11;;;;;;;18.13;8.52;;;20.90;97.60;;;20.94;57.00;97058.00;5054271;27;20043;-76
2022/09/27 10:25:03;;;;;;;16.98;9.40;;;20.90;97.50;;;20.94;57.10;97046.97;5087135;27;20054;-76
2022/09/27 10:27:38;;;;;;;15.90;8.00;;;20.90;97.60;;;20.96;56.90;97048.19;5059253;28;20569;-76
2022/09/27 10:30:05;;;;;;;16.45;7.97;;;20.90;97.60;;;20.95;57.04;97041.09;5089778;27;20043;-76
2022/09/27 10:32:36;;;;;;;17.75;8.35;;;20.90;97.60;;;21.01;56.92;97041.50;5104506;27;20122;-76
2022/09/27 10:35:34;;;;;;;11.90;7.70;;;20.90;97.60;;;21.03;56.78;97039.94;5071603;27;20514;-76
2022/09/27 10:38:19;;;;;;;17.15;7.68;;;20.90;97.50;;;21.00;56.69;97035.19;5077586;27;20078;-76
2022/09/27 10:40:45;;;;;;;13.40;7.63;;;21.00;97.40;;;20.96;56.95;97030.84;5102253;27;20043;-76
2022/09/27 10:43:29;;;;;;;16.77;7.25;;;21.00;97.40;;;20.93;57.36;97034.38;5088550;27;20057;-76
2022/09/27 10:46:26;;;;;;;13.23;7.55;;;21.00;97.70;;;20.92;57.19;97036.34;5107642;27;20111;-76
2022/09/27 10:49:24;;;;;;;13.70;7.93;;;21.00;97.30;;;20.94;57.10;97042.28;5087796;27;20635;-76